Time;durP1;ratioP1;P1;durP2;ratioP2;P2;SDS_P1;SDS_P2;PMS_P1;PMS_P2;Temp;Humidity;BMP_temperature;BMP_pressure;BME280_temperature;BME280_humidity;BME280_pressure;Samples;Min_cycle;Max_cycle;Signal;HPM_P1;HPM_P2
2022/03/08 00:01:09;;;;;;;16.08;9.43;;;;;;;;;;5095619;28;20066;-85
2022/03/08 00:03:35;;;;;;;18.88;9.00;;;;;;;;;;5095544;28;20501;-85
2022/03/08 00:06:01;;;;;;;17.55;9.38;;;;;;;;;;5095101;28;20020;-85
2022/03/08 00:08:27;;;;;;;16.35;9.07;;;;;;;;;;5094132;28;20053;-85
2022/03/08 00:10:53;;;;;;;19.77;9.65;;;;;;;;;;5095438;28;20389;-84
2022/03/08 00:13:20;;;;;;;13.50;8.27;;;;;;;;;;5095275;28;20070;-85
2022/03/08 00:15:46;;;;;;;16.23;9.00;;;;;;;;;;5095324;28;20030;-85
2022/03/08 00:18:12;;;;;;;15.88;9.20;;;;;;;;;;5095222;28;20417;-85
2022/03/08 00:20:39;;;;;;;16.90;9.40;;;;;;;;;;5077007;28;20024;-85
2022/03/08 00:23:05;;;;;;;15.13;8.98;;;;;;;;;;5073457;28;20031;-85
2022/03/08 00:25:31;;;;;;;15.88;9.23;;;;;;;;;;5074779;28;20103;-84
2022/03/08 00:27:57;;;;;;;15.68;8.52;;;;;;;;;;5075086;28;20895;-85
2022/03/08 00:30:24;;;;;;;15.68;8.65;;;;;;;;;;5074883;28;20031;-84
2022/03/08 00:32:51;;;;;;;18.73;8.75;;;;;;;;;;5074515;28;20028;-84
2022/03/08 00:35:18;;;;;;;17.33;8.93;;;;;;;;;;5074830;28;20205;-85
2022/03/08 00:37:47;;;;;;;14.75;8.38;;;;;;;;;;5074631;28;20024;-84
2022/03/08 00:40:14;;;;;;;14.68;8.77;;;;;;;;;;5074806;28;20167;-85
2022/03/08 00:42:40;;;;;;;14.82;8.30;;;;;;;;;;5074508;28;20028;-84
2022/03/08 00:45:07;;;;;;;16.20;8.77;;;;;;;;;;5074392;28;20028;-84
2022/03/08 00:47:33;;;;;;;17.05;9.15;;;;;;;;;;5083730;28;20070;-84
2022/03/08 00:49:59;;;;;;;14.25;8.35;;;;;;;;;;5094522;28;20024;-84
2022/03/08 00:52:25;;;;;;;17.63;8.57;;;;;;;;;;5094156;28;20054;-84
2022/03/08 00:54:51;;;;;;;17.45;8.32;;;;;;;;;;5094601;28;20022;-84
2022/03/08 00:57:17;;;;;;;15.80;8.45;;;;;;;;;;5094519;28;20024;-84
2022/03/08 00:59:43;;;;;;;17.02;8.70;;;;;;;;;;5093173;28;20385;-84
2022/03/08 01:02:09;;;;;;;15.60;8.15;;;;;;;;;;5093103;28;20032;-84
2022/03/08 01:04:35;;;;;;;18.40;8.77;;;;;;;;;;5094340;28;20031;-84
2022/03/08 01:07:02;;;;;;;18.00;8.82;;;;;;;;;;5094426;28;20028;-84
2022/03/08 01:09:28;;;;;;;17.15;8.23;;;;;;;;;;5094344;28;20150;-84
2022/03/08 01:11:54;;;;;;;14.40;8.05;;;;;;;;;;5094257;28;20124;-84
2022/03/08 01:14:20;;;;;;;14.48;8.00;;;;;;;;;;5094307;28;20043;-84
2022/03/08 01:16:46;;;;;;;16.23;8.02;;;;;;;;;;5093921;28;20024;-84
2022/03/08 01:19:12;;;;;;;15.32;8.45;;;;;;;;;;5093287;28;20091;-84
2022/03/08 01:21:38;;;;;;;12.25;7.70;;;;;;;;;;5094202;28;20161;-84
2022/03/08 01:24:04;;;;;;;13.93;8.10;;;;;;;;;;5094192;28;20032;-84
2022/03/08 01:26:31;;;;;;;16.10;8.52;;;;;;;;;;5093021;28;20036;-84
2022/03/08 01:28:57;;;;;;;15.32;8.27;;;;;;;;;;5092688;28;20112;-84
2022/03/08 01:31:25;;;;;;;13.82;8.10;;;;;;;;;;5093757;28;20466;-84
2022/03/08 01:33:51;;;;;;;16.88;8.80;;;;;;;;;;5093997;28;20024;-84
2022/03/08 01:36:17;;;;;;;15.40;8.52;;;;;;;;;;5093633;28;20069;-84
2022/03/08 01:38:43;;;;;;;13.65;7.88;;;;;;;;;;5093601;28;20030;-84
2022/03/08 01:41:09;;;;;;;16.17;8.55;;;;;;;;;;5093655;28;20024;-84
2022/03/08 01:43:35;;;;;;;15.85;8.55;;;;;;;;;;5092155;28;20055;-84
2022/03/08 01:46:01;;;;;;;15.02;8.82;;;;;;;;;;5093536;28;20414;-84
2022/03/08 01:48:28;;;;;;;16.52;8.23;;;;;;;;;;5093340;28;20063;-84
2022/03/08 01:50:56;;;;;;;14.13;8.07;;;;;;;;;;5093296;28;20105;-84
2022/03/08 01:53:21;;;;;;;16.20;7.75;;;;;;;;;;5093432;28;20112;-84
2022/03/08 01:55:48;;;;;;;15.82;8.10;;;;;;;;;;5093350;28;20055;-84
2022/03/08 01:58:14;;;;;;;15.35;8.05;;;;;;;;;;5093632;28;20035;-84
2022/03/08 02:00:40;;;;;;;15.57;8.27;;;;;;;;;;5091961;28;20114;-84
2022/03/08 02:03:06;;;;;;;13.65;7.57;;;;;;;;;;5093151;28;20055;-84
2022/03/08 02:05:32;;;;;;;15.48;7.35;;;;;;;;;;5093343;28;20024;-83
2022/03/08 02:07:58;;;;;;;14.88;7.20;;;;;;;;;;5093190;28;20024;-83
2022/03/08 02:10:24;;;;;;;13.93;7.13;;;;;;;;;;5093411;28;20093;-83
2022/03/08 02:12:50;;;;;;;12.70;6.90;;;;;;;;;;5092938;28;20024;-83
2022/03/08 02:15:20;;;;;;;14.55;7.60;;;;;;;;;;5093398;28;20059;-83
2022/03/08 02:17:48;;;;;;;11.35;6.63;;;;;;;;;;5092984;28;20081;-83
2022/03/08 02:20:15;;;;;;;12.80;6.60;;;;;;;;;;5076911;28;20021;-82
2022/03/08 02:22:42;;;;;;;14.15;6.43;;;;;;;;;;5073139;28;20025;-83
2022/03/08 02:25:08;;;;;;;9.65;5.85;;;;;;;;;;5072660;28;20029;-83
2022/03/08 02:27:34;;;;;;;10.00;5.90;;;;;;;;;;5071439;28;20028;-83
2022/03/08 02:30:00;;;;;;;12.18;5.78;;;;;;;;;;5072653;28;20029;-83
2022/03/08 02:32:26;;;;;;;11.90;5.88;;;;;;;;;;5072770;28;20035;-83
2022/03/08 02:34:52;;;;;;;9.07;5.72;;;;;;;;;;5073051;28;20017;-82
2022/03/08 02:37:20;;;;;;;11.30;5.75;;;;;;;;;;5072684;28;20432;-82
2022/03/08 02:39:46;;;;;;;8.85;5.47;;;;;;;;;;5073065;28;20024;-82
2022/03/08 02:42:12;;;;;;;9.70;5.43;;;;;;;;;;5072828;28;20033;-83
2022/03/08 02:44:38;;;;;;;9.32;5.03;;;;;;;;;;5072664;28;20028;-82
2022/03/08 02:47:04;;;;;;;9.43;5.30;;;;;;;;;;5076597;28;20070;-83
2022/03/08 02:49:31;;;;;;;8.48;4.97;;;;;;;;;;5092969;28;20052;-83
2022/03/08 02:51:57;;;;;;;10.07;5.13;;;;;;;;;;5092500;28;20049;-83
2022/03/08 02:54:23;;;;;;;10.73;5.57;;;;;;;;;;5092849;28;20154;-83
2022/03/08 02:56:50;;;;;;;11.05;5.00;;;;;;;;;;5092768;28;20032;-83
2022/03/08 02:59:20;;;;;;;10.00;4.90;;;;;;;;;;5092765;28;20017;-82
2022/03/08 03:01:46;;;;;;;10.35;5.35;;;;;;;;;;5092727;28;20091;-82
2022/03/08 03:04:12;;;;;;;9.25;5.05;;;;;;;;;;5092875;28;20031;-82
2022/03/08 03:06:39;;;;;;;7.13;4.65;;;;;;;;;;5092760;28;20035;-83
2022/03/08 03:09:05;;;;;;;9.93;5.22;;;;;;;;;;5092805;28;20028;-83
2022/03/08 03:11:31;;;;;;;9.48;4.70;;;;;;;;;;5093061;28;20028;-83
2022/03/08 03:13:57;;;;;;;9.75;5.22;;;;;;;;;;5092835;28;20101;-83
2022/03/08 03:16:23;;;;;;;9.60;4.70;;;;;;;;;;5092641;28;20020;-83
2022/03/08 03:18:49;;;;;;;10.75;4.57;;;;;;;;;;5092670;28;20050;-83
2022/03/08 03:21:15;;;;;;;8.73;4.78;;;;;;;;;;5091300;28;20024;-83
2022/03/08 03:23:42;;;;;;;10.23;5.10;;;;;;;;;;5092578;28;20463;-83
2022/03/08 03:26:08;;;;;;;10.18;4.70;;;;;;;;;;5092801;28;20027;-83
2022/03/08 03:28:34;;;;;;;11.18;4.40;;;;;;;;;;5093104;28;20024;-83
2022/03/08 03:31:00;;;;;;;12.65;4.80;;;;;;;;;;5092600;28;20481;-83
2022/03/08 03:33:26;;;;;;;9.63;4.60;;;;;;;;;;5091213;28;20028;-83
2022/03/08 03:35:52;;;;;;;8.55;5.13;;;;;;;;;;5092800;28;20031;-83
2022/03/08 03:38:18;;;;;;;8.43;4.70;;;;;;;;;;5092550;28;20025;-83
2022/03/08 03:40:44;;;;;;;10.18;4.90;;;;;;;;;;5093397;28;20057;-84
2022/03/08 03:43:11;;;;;;;6.22;4.30;;;;;;;;;;5096424;28;20036;-83
2022/03/08 03:45:37;;;;;;;7.80;4.75;;;;;;;;;;5096083;28;20048;-84
2022/03/08 03:48:03;;;;;;;9.05;4.60;;;;;;;;;;5082578;28;20355;-84
2022/03/08 03:50:29;;;;;;;12.07;4.75;;;;;;;;;;5075393;28;20096;-84
2022/03/08 03:52:55;;;;;;;9.82;4.68;;;;;;;;;;5073500;28;20487;-84
2022/03/08 03:55:21;;;;;;;9.75;5.07;;;;;;;;;;5074819;28;20032;-84
2022/03/08 03:57:47;;;;;;;9.60;4.65;;;;;;;;;;5075388;28;20024;-85
2022/03/08 04:00:14;;;;;;;7.45;4.70;;;;;;;;;;5075631;28;20039;-85
2022/03/08 04:02:41;;;;;;;9.35;4.65;;;;;;;;;;5074102;28;20613;-85
2022/03/08 04:05:07;;;;;;;8.32;5.57;;;;;;;;;;5075314;28;20078;-85
2022/03/08 04:07:33;;;;;;;8.00;4.90;;;;;;;;;;5075276;28;20107;-86
2022/03/08 04:09:59;;;;;;;8.85;5.30;;;;;;;;;;5075466;28;20071;-86
2022/03/08 04:12:25;;;;;;;7.35;4.82;;;;;;;;;;5075166;28;20483;-86
2022/03/08 04:14:51;;;;;;;10.15;5.32;;;;;;;;;;5075096;28;20028;-86
2022/03/08 04:17:17;;;;;;;9.57;4.82;;;;;;;;;;5075246;28;20459;-86
2022/03/08 04:19:43;;;;;;;8.95;5.20;;;;;;;;;;5085609;28;20020;-86
2022/03/08 04:22:09;;;;;;;10.63;5.10;;;;;;;;;;5095581;28;20103;-86
2022/03/08 04:24:35;;;;;;;10.98;5.00;;;;;;;;;;5095364;28;20032;-86
2022/03/08 04:27:01;;;;;;;7.25;4.30;;;;;;;;;;5095304;28;20032;-86
2022/03/08 04:29:27;;;;;;;6.70;4.20;;;;;;;;;;5095288;28;20491;-86
2022/03/08 04:31:53;;;;;;;11.40;4.95;;;;;;;;;;5095227;28;20024;-86
2022/03/08 04:34:19;;;;;;;7.68;4.68;;;;;;;;;;5095234;28;20021;-85
2022/03/08 04:36:45;;;;;;;6.22;4.18;;;;;;;;;;5094991;28;20323;-85
2022/03/08 04:39:11;;;;;;;8.13;4.50;;;;;;;;;;5095174;28;20025;-85
2022/03/08 04:41:37;;;;;;;9.63;4.30;;;;;;;;;;5095127;28;20035;-85
2022/03/08 04:44:04;;;;;;;7.43;4.30;;;;;;;;;;5095167;28;20032;-85
2022/03/08 04:46:30;;;;;;;7.78;4.35;;;;;;;;;;5094788;28;20428;-85
2022/03/08 04:48:56;;;;;;;7.72;3.90;;;;;;;;;;5095145;28;20036;-85
2022/03/08 04:51:23;;;;;;;9.93;4.03;;;;;;;;;;5093442;28;20067;-85
2022/03/08 04:53:49;;;;;;;7.15;4.10;;;;;;;;;;5095079;28;20081;-85
2022/03/08 04:56:16;;;;;;;11.75;4.50;;;;;;;;;;5094649;28;20461;-85
2022/03/08 04:58:42;;;;;;;5.95;4.00;;;;;;;;;;5094737;28;20031;-85
2022/03/08 05:01:08;;;;;;;9.43;4.78;;;;;;;;;;5094650;28;20099;-85
2022/03/08 05:03:34;;;;;;;7.03;4.18;;;;;;;;;;5094476;28;20051;-84
2022/03/08 05:06:00;;;;;;;10.98;4.35;;;;;;;;;;5093205;28;20089;-84
2022/03/08 05:08:26;;;;;;;6.53;3.85;;;;;;;;;;5093164;28;20036;-84
2022/03/08 05:10:52;;;;;;;8.27;4.63;;;;;;;;;;5094667;28;20481;-84
2022/03/08 05:13:18;;;;;;;7.82;4.00;;;;;;;;;;5094393;28;20032;-84
2022/03/08 05:15:48;;;;;;;9.23;4.40;;;;;;;;;;5094412;28;20019;-84
2022/03/08 05:18:14;;;;;;;7.40;4.03;;;;;;;;;;5094515;28;20059;-84
2022/03/08 05:20:40;;;;;;;6.35;4.00;;;;;;;;;;5075869;28;20063;-85
2022/03/08 05:23:06;;;;;;;7.57;4.72;;;;;;;;;;5073907;28;20032;-84
2022/03/08 05:25:32;;;;;;;8.85;4.78;;;;;;;;;;5073775;28;20091;-84
2022/03/08 05:27:58;;;;;;;7.10;4.53;;;;;;;;;;5073968;28;20355;-84
2022/03/08 05:30:24;;;;;;;8.75;4.72;;;;;;;;;;5073796;28;20029;-84
2022/03/08 05:32:50;;;;;;;8.80;4.38;;;;;;;;;;5073705;28;20028;-84
2022/03/08 05:35:16;;;;;;;9.60;4.30;;;;;;;;;;5073569;28;20016;-84
2022/03/08 05:37:42;;;;;;;6.78;4.28;;;;;;;;;;5073658;28;20024;-84
2022/03/08 05:40:09;;;;;;;8.85;4.47;;;;;;;;;;5073994;28;20092;-84
2022/03/08 05:42:38;;;;;;;9.25;4.35;;;;;;;;;;5072212;28;20039;-84
2022/03/08 05:45:04;;;;;;;8.00;4.55;;;;;;;;;;5073495;28;20025;-84
2022/03/08 05:47:30;;;;;;;6.25;4.03;;;;;;;;;;5082229;28;20024;-84
2022/03/08 05:49:56;;;;;;;6.93;4.35;;;;;;;;;;5093666;28;20027;-84
2022/03/08 05:52:22;;;;;;;8.20;5.00;;;;;;;;;;5092059;28;20097;-84
2022/03/08 05:54:48;;;;;;;7.47;4.30;;;;;;;;;;5093518;28;20355;-84
2022/03/08 05:57:14;;;;;;;8.70;4.80;;;;;;;;;;5093620;28;20085;-84
2022/03/08 05:59:40;;;;;;;7.43;4.53;;;;;;;;;;5093529;28;20065;-84
2022/03/08 06:02:06;;;;;;;12.27;5.38;;;;;;;;;;5093343;28;20078;-84
2022/03/08 06:04:32;;;;;;;9.73;4.65;;;;;;;;;;5091747;28;20474;-84
2022/03/08 06:06:58;;;;;;;6.68;4.15;;;;;;;;;;5091959;28;20020;-84
2022/03/08 06:09:24;;;;;;;10.05;4.70;;;;;;;;;;5093545;28;20103;-84
2022/03/08 06:11:50;;;;;;;6.70;4.47;;;;;;;;;;5093738;28;20374;-83
2022/03/08 06:14:16;;;;;;;14.07;4.55;;;;;;;;;;5094068;28;20039;-84
2022/03/08 06:16:42;;;;;;;10.02;4.60;;;;;;;;;;5093193;28;20024;-84
2022/03/08 06:19:08;;;;;;;11.75;4.70;;;;;;;;;;5087621;28;20130;-84
2022/03/08 06:21:34;;;;;;;9.45;5.05;;;;;;;;;;5072930;28;20024;-84
2022/03/08 06:24:00;;;;;;;8.60;4.40;;;;;;;;;;5091820;28;20031;-84
2022/03/08 06:26:26;;;;;;;8.07;4.88;;;;;;;;;;5093162;28;20103;-84
2022/03/08 06:28:52;;;;;;;12.25;4.57;;;;;;;;;;5091667;28;20028;-84
2022/03/08 06:31:18;;;;;;;8.98;4.95;;;;;;;;;;5093021;28;20099;-84
2022/03/08 06:33:44;;;;;;;8.55;4.72;;;;;;;;;;5092945;28;20027;-84
2022/03/08 06:36:10;;;;;;;10.23;5.03;;;;;;;;;;5093018;28;20028;-84
2022/03/08 06:38:36;;;;;;;8.20;4.68;;;;;;;;;;5092922;28;20412;-84
2022/03/08 06:41:01;;;;;;;7.13;4.65;;;;;;;;;;5093050;28;20028;-84
2022/03/08 06:43:27;;;;;;;11.80;5.50;;;;;;;;;;5093031;28;20102;-84
2022/03/08 06:45:54;;;;;;;7.28;4.13;;;;;;;;;;5091719;28;20438;-84
2022/03/08 06:48:20;;;;;;;8.20;4.80;;;;;;;;;;5077083;28;20363;-84
2022/03/08 06:50:46;;;;;;;9.30;5.10;;;;;;;;;;5072430;28;20399;-84
2022/03/08 06:53:12;;;;;;;7.93;4.60;;;;;;;;;;5072642;28;20107;-84
2022/03/08 06:55:38;;;;;;;6.15;4.30;;;;;;;;;;5072622;28;20021;-84
2022/03/08 06:58:05;;;;;;;7.47;4.82;;;;;;;;;;5091975;28;20099;-84
2022/03/08 07:00:31;;;;;;;7.88;4.82;;;;;;;;;;5092994;28;20482;-84
2022/03/08 07:02:57;;;;;;;11.52;4.78;;;;;;;;;;5092521;28;20496;-84
2022/03/08 07:05:23;;;;;;;7.88;5.07;;;;;;;;;;5092749;28;20529;-84
2022/03/08 07:07:49;;;;;;;6.63;4.25;;;;;;;;;;5092592;28;20106;-84
2022/03/08 07:10:15;;;;;;;8.25;4.50;;;;;;;;;;5092616;28;20051;-84
2022/03/08 07:12:41;;;;;;;8.65;5.05;;;;;;;;;;5091247;28;20024;-84
2022/03/08 07:15:07;;;;;;;7.18;4.50;;;;;;;;;;5092726;28;20020;-84
2022/03/08 07:17:33;;;;;;;8.10;5.10;;;;;;;;;;5096253;28;20547;-84
2022/03/08 07:19:59;;;;;;;7.18;4.38;;;;;;;;;;5083810;28;20052;-84
2022/03/08 07:22:25;;;;;;;8.85;4.47;;;;;;;;;;5076190;28;20028;-84
2022/03/08 07:24:51;;;;;;;7.85;4.50;;;;;;;;;;5077121;28;20537;-84
2022/03/08 07:27:18;;;;;;;8.80;4.82;;;;;;;;;;5096497;28;20020;-84
2022/03/08 07:29:46;;;;;;;6.80;4.75;;;;;;;;;;5094867;28;20107;-81
2022/03/08 07:32:12;;;;;;;6.53;4.05;;;;;;;;;;5096195;28;20111;-79
2022/03/08 07:34:38;;;;;;;7.93;4.50;;;;;;;;;;5095409;28;20056;-81
2022/03/08 07:37:04;;;;;;;6.07;4.15;;;;;;;;;;5095612;28;20035;-80
2022/03/08 07:39:30;;;;;;;5.90;4.15;;;;;;;;;;5095921;28;20031;-81
2022/03/08 07:41:56;;;;;;;5.97;4.03;;;;;;;;;;5095719;28;20474;-81
2022/03/08 07:44:22;;;;;;;10.85;4.50;;;;;;;;;;5095175;28;20016;-81
2022/03/08 07:46:48;;;;;;;7.97;4.35;;;;;;;;;;5093380;28;20074;-80
2022/03/08 07:49:14;;;;;;;9.30;4.43;;;;;;;;;;5094837;28;20032;-80
2022/03/08 07:51:40;;;;;;;7.72;4.00;;;;;;;;;;5094929;28;20063;-80
2022/03/08 07:54:06;;;;;;;5.63;3.90;;;;;;;;;;5095358;28;20047;-80
2022/03/08 07:56:32;;;;;;;9.18;4.93;;;;;;;;;;5094956;28;20024;-80
2022/03/08 07:58:58;;;;;;;9.45;4.03;;;;;;;;;;5094115;28;20016;-80
2022/03/08 08:01:24;;;;;;;7.57;4.03;;;;;;;;;;5094420;28;20057;-80
2022/03/08 08:03:50;;;;;;;7.47;4.50;;;;;;;;;;5094876;28;20024;-80
2022/03/08 08:06:16;;;;;;;10.32;4.45;;;;;;;;;;5095063;28;20034;-80
2022/03/08 08:08:42;;;;;;;10.30;4.25;;;;;;;;;;5094720;28;20098;-81
2022/03/08 08:11:08;;;;;;;6.03;4.20;;;;;;;;;;5091896;28;20393;-81
2022/03/08 08:13:35;;;;;;;5.90;4.00;;;;;;;;;;5094912;28;20522;-81
2022/03/08 08:16:01;;;;;;;7.75;4.30;;;;;;;;;;5095028;28;20016;-80
2022/03/08 08:18:27;;;;;;;7.80;4.15;;;;;;;;;;5095057;28;20020;-80
2022/03/08 08:20:53;;;;;;;8.35;3.83;;;;;;;;;;5085588;28;20028;-81
2022/03/08 08:23:19;;;;;;;7.50;4.35;;;;;;;;;;5094808;28;20057;-80
2022/03/08 08:25:45;;;;;;;7.40;3.95;;;;;;;;;;5094908;28;20258;-81
2022/03/08 08:28:11;;;;;;;6.68;4.03;;;;;;;;;;5094677;28;20032;-81
2022/03/08 08:30:37;;;;;;;7.25;4.05;;;;;;;;;;5091954;28;20031;-79
2022/03/08 08:33:03;;;;;;;5.78;3.65;;;;;;;;;;5094713;28;20474;-79
2022/03/08 08:35:29;;;;;;;6.22;3.65;;;;;;;;;;5093146;28;20787;-79
2022/03/08 08:37:57;;;;;;;8.48;3.60;;;;;;;;;;5095175;28;20032;-83
2022/03/08 08:40:23;;;;;;;6.85;4.10;;;;;;;;;;5095244;28;20042;-84
2022/03/08 08:42:49;;;;;;;5.32;3.63;;;;;;;;;;5094827;28;20462;-84
2022/03/08 08:45:15;;;;;;;7.32;4.03;;;;;;;;;;5093320;28;20036;-84
2022/03/08 08:47:41;;;;;;;6.85;4.13;;;;;;;;;;5093311;28;20169;-83
2022/03/08 08:50:07;;;;;;;5.88;3.72;;;;;;;;;;5093987;28;20032;-82
2022/03/08 08:52:33;;;;;;;7.60;4.68;;;;;;;;;;5094757;28;20040;-82
2022/03/08 08:55:00;;;;;;;14.32;5.50;;;;;;;;;;5094816;28;20020;-83
2022/03/08 08:57:26;;;;;;;8.13;3.70;;;;;;;;;;5096707;28;20035;-84
2022/03/08 08:59:52;;;;;;;7.28;3.55;;;;;;;;;;5098224;28;20093;-84
2022/03/08 09:02:18;;;;;;;8.95;4.07;;;;;;;;;;5094121;28;20027;-83
2022/03/08 09:04:44;;;;;;;9.40;4.07;;;;;;;;;;5094495;28;20110;-84
2022/03/08 09:07:10;;;;;;;5.47;3.80;;;;;;;;;;5094844;28;20105;-85
2022/03/08 09:09:36;;;;;;;8.23;3.60;;;;;;;;;;5093591;28;20071;-82
2022/03/08 09:12:02;;;;;;;11.07;3.85;;;;;;;;;;5094552;28;20056;-81
2022/03/08 09:14:28;;;;;;;9.05;3.90;;;;;;;;;;5094772;28;20446;-82
2022/03/08 09:16:54;;;;;;;6.80;3.55;;;;;;;;;;5094209;28;20025;-81
2022/03/08 09:19:20;;;;;;;14.15;5.95;;;;;;;;;;5087136;28;20033;-78
2022/03/08 09:21:46;;;;;;;8.40;3.45;;;;;;;;;;5093293;28;20024;-80
2022/03/08 09:24:13;;;;;;;7.70;4.28;;;;;;;;;;5093279;28;20027;-78
2022/03/08 09:26:39;;;;;;;5.03;3.40;;;;;;;;;;5093530;28;20024;-79
2022/03/08 09:29:05;;;;;;;7.95;4.00;;;;;;;;;;5092014;28;20020;-79
2022/03/08 09:31:31;;;;;;;9.20;3.88;;;;;;;;;;5093098;28;20018;-78
2022/03/08 09:33:57;;;;;;;4.47;2.90;;;;;;;;;;5092963;28;20381;-79
2022/03/08 09:36:23;;;;;;;10.30;4.57;;;;;;;;;;5093122;28;20020;-80
2022/03/08 09:38:49;;;;;;;8.45;3.40;;;;;;;;;;5090734;28;20180;-79
2022/03/08 09:41:15;;;;;;;7.38;3.55;;;;;;;;;;5092936;28;20024;-79
2022/03/08 09:43:42;;;;;;;13.88;6.90;;;;;;;;;;5090123;28;20431;-79
2022/03/08 09:46:08;;;;;;;7.05;3.63;;;;;;;;;;5093081;28;20074;-79
2022/03/08 09:48:34;;;;;;;11.02;4.60;;;;;;;;;;5092698;28;20055;-79
2022/03/08 09:51:02;;;;;;;7.15;3.90;;;;;;;;;;5092786;28;20044;-79
2022/03/08 09:53:29;;;;;;;8.82;4.00;;;;;;;;;;5092800;28;20089;-80
2022/03/08 09:56:00;;;;;;;9.43;4.22;;;;;;;;;;5092621;28;20045;-79
2022/03/08 09:58:26;;;;;;;12.82;3.90;;;;;;;;;;5090695;28;20081;-79
2022/03/08 10:00:55;;;;;;;8.07;4.43;;;;;;;;;;5092754;28;20028;-78
2022/03/08 10:03:31;;;;;;;13.80;4.60;;;;;;;;;;5092660;28;20040;-79
2022/03/08 10:05:57;;;;;;;6.57;3.80;;;;;;;;;;5092627;28;20082;-79
2022/03/08 10:08:24;;;;;;;10.93;4.78;;;;;;;;;;5092643;28;20425;-79
2022/03/08 10:10:58;;;;;;;8.52;3.83;;;;;;;;;;5092898;28;20024;-79
2022/03/08 10:13:26;;;;;;;7.55;3.25;;;;;;;;;;5082119;28;20020;-79
2022/03/08 10:16:04;;;;;;;14.75;4.40;;;;;;;;;;5092949;28;20016;-79
2022/03/08 10:19:08;;;;;;;12.45;5.30;;;;;;;;;;5090639;28;20016;-79
2022/03/08 10:21:34;;;;;;;11.70;5.32;;;;;;;;;;5006782;28;20017;-77
2022/03/08 10:24:01;;;;;;;15.88;5.15;;;;;;;;;;5029667;28;20478;-78
2022/03/08 10:26:27;;;;;;;5.43;3.60;;;;;;;;;;5013504;28;20447;-79
2022/03/08 10:28:54;;;;;;;10.18;3.90;;;;;;;;;;5029580;28;20103;-78
2022/03/08 10:31:20;;;;;;;5.93;3.60;;;;;;;;;;5029565;28;20464;-78
2022/03/08 10:33:47;;;;;;;12.15;3.70;;;;;;;;;;5029571;28;20037;-78
2022/03/08 10:36:13;;;;;;;8.23;4.10;;;;;;;;;;5013052;28;20357;-78
2022/03/08 10:39:02;;;;;;;8.35;4.47;;;;;;;;;;5029313;28;20487;-78
2022/03/08 10:41:28;;;;;;;5.57;3.47;;;;;;;;;;4951488;29;20525;-78
2022/03/08 10:43:56;;;;;;;8.13;4.60;;;;;;;;;;4951218;29;20202;-78
2022/03/08 10:46:22;;;;;;;10.57;5.18;;;;;;;;;;4951174;29;20043;-79
2022/03/08 10:48:50;;;;;;;12.35;5.00;;;;;;;;;;4932365;29;20040;-77
2022/03/08 10:51:16;;;;;;;13.60;3.40;;;;;;;;;;4942650;29;20058;-79
2022/03/08 10:53:45;;;;;;;9.02;4.18;;;;;;;;;;4936067;29;20478;-79
2022/03/08 10:56:11;;;;;;;7.50;4.40;;;;;;;;;;5012395;28;20128;-79
2022/03/08 10:58:51;;;;;;;11.20;3.80;;;;;;;;;;5033216;28;20037;-79
2022/03/08 11:01:17;;;;;;;5.60;3.47;;;;;;;;;;5033117;28;20527;-79
2022/03/08 11:03:56;;;;;;;6.28;3.70;;;;;;;;;;5033257;28;20029;-79
2022/03/08 11:06:22;;;;;;;14.38;5.25;;;;;;;;;;5016125;28;20059;-77
2022/03/08 11:08:49;;;;;;;8.43;3.80;;;;;;;;;;5033349;28;20025;-80
2022/03/08 11:11:15;;;;;;;13.73;4.43;;;;;;;;;;5017058;28;20033;-81
2022/03/08 11:13:43;;;;;;;7.95;3.95;;;;;;;;;;5033035;28;20112;-80
2022/03/08 11:16:09;;;;;;;6.65;4.25;;;;;;;;;;5033468;28;20383;-81
2022/03/08 11:18:36;;;;;;;7.38;3.70;;;;;;;;;;5067421;28;20101;-80
2022/03/08 11:21:02;;;;;;;7.10;3.45;;;;;;;;;;5094755;28;20044;-80
2022/03/08 11:23:29;;;;;;;5.28;3.40;;;;;;;;;;5095438;28;20374;-80
2022/03/08 11:25:56;;;;;;;7.68;3.58;;;;;;;;;;5095444;28;20031;-80
2022/03/08 11:28:22;;;;;;;7.75;3.65;;;;;;;;;;5095204;28;20053;-80
2022/03/08 11:30:52;;;;;;;4.35;3.20;;;;;;;;;;5094070;28;20032;-80
2022/03/08 11:33:33;;;;;;;5.25;3.03;;;;;;;;;;5095149;28;20506;-80
2022/03/08 11:36:18;;;;;;;12.50;3.50;;;;;;;;;;5093165;28;20095;-80
2022/03/08 11:38:44;;;;;;;11.73;3.33;;;;;;;;;;5095259;28;20019;-79
2022/03/08 11:41:10;;;;;;;7.00;3.00;;;;;;;;;;5094672;28;20032;-80
2022/03/08 11:43:38;;;;;;;7.38;2.90;;;;;;;;;;5094913;28;20024;-80
2022/03/08 11:46:18;;;;;;;7.47;4.20;;;;;;;;;;5094772;28;20032;-80
2022/03/08 11:48:54;;;;;;;7.70;3.42;;;;;;;;;;5093352;28;20024;-80
2022/03/08 11:51:21;;;;;;;10.18;3.60;;;;;;;;;;5091675;28;20042;-80
2022/03/08 11:53:47;;;;;;;9.43;3.60;;;;;;;;;;5094077;28;20032;-80
2022/03/08 11:56:18;;;;;;;5.50;2.90;;;;;;;;;;5094633;28;20095;-80
2022/03/08 11:58:49;;;;;;;5.20;3.10;;;;;;;;;;5092967;28;20442;-80
2022/03/08 12:01:26;;;;;;;6.90;2.90;;;;;;;;;;5094596;28;20020;-81
2022/03/08 12:03:57;;;;;;;6.15;3.00;;;;;;;;;;5094953;28;20036;-79
2022/03/08 12:06:33;;;;;;;9.85;2.95;;;;;;;;;;5091034;28;20026;-80
2022/03/08 12:09:07;;;;;;;7.72;3.33;;;;;;;;;;5094892;28;20028;-80
2022/03/08 12:11:40;;;;;;;5.65;2.90;;;;;;;;;;5095336;28;20020;-81
2022/03/08 12:14:09;;;;;;;7.35;3.50;;;;;;;;;;5073465;28;20020;-79
2022/03/08 12:16:39;;;;;;;5.57;3.28;;;;;;;;;;5085077;28;20023;-80
2022/03/08 12:19:05;;;;;;;8.88;3.30;;;;;;;;;;5094077;28;20085;-80
2022/03/08 12:21:33;;;;;;;10.45;3.40;;;;;;;;;;5094149;28;20043;-79
2022/03/08 12:23:59;;;;;;;5.00;2.72;;;;;;;;;;5094101;28;20112;-80
2022/03/08 12:26:24;;;;;;;5.05;3.13;;;;;;;;;;5094476;28;20457;-78
2022/03/08 12:29:04;;;;;;;9.00;2.78;;;;;;;;;;5094416;28;20114;-79
2022/03/08 12:31:30;;;;;;;8.48;3.08;;;;;;;;;;5094081;28;20465;-80
2022/03/08 12:34:06;;;;;;;6.18;2.67;;;;;;;;;;5094744;28;20111;-79
2022/03/08 12:36:34;;;;;;;9.40;3.08;;;;;;;;;;5094109;28;20024;-80
2022/03/08 12:39:00;;;;;;;9.18;3.25;;;;;;;;;;5092333;28;20509;-79
2022/03/08 12:41:27;;;;;;;5.55;3.20;;;;;;;;;;5094093;28;20028;-80
2022/03/08 12:44:01;;;;;;;7.50;2.95;;;;;;;;;;5093682;28;20024;-79
2022/03/08 12:46:28;;;;;;;8.30;3.10;;;;;;;;;;5093726;28;20114;-79
2022/03/08 12:48:54;;;;;;;7.47;3.05;;;;;;;;;;5073617;28;20122;-79
2022/03/08 12:51:23;;;;;;;6.47;3.20;;;;;;;;;;5073470;28;20140;-79
2022/03/08 12:53:57;;;;;;;6.60;3.08;;;;;;;;;;5073606;28;20054;-79
2022/03/08 12:56:24;;;;;;;9.00;2.90;;;;;;;;;;5073656;28;20066;-80
2022/03/08 12:58:50;;;;;;;6.60;3.05;;;;;;;;;;5073889;28;20412;-80
2022/03/08 13:01:16;;;;;;;6.68;3.30;;;;;;;;;;5073554;28;20078;-79
2022/03/08 13:03:43;;;;;;;11.55;3.40;;;;;;;;;;5073265;28;20044;-79
2022/03/08 13:06:11;;;;;;;8.48;3.35;;;;;;;;;;5073849;28;20060;-79
2022/03/08 13:08:38;;;;;;;6.07;3.17;;;;;;;;;;5073974;28;20024;-79
2022/03/08 13:11:06;;;;;;;6.68;3.30;;;;;;;;;;5073567;28;20059;-79
2022/03/08 13:13:32;;;;;;;7.30;3.40;;;;;;;;;;5072730;28;20071;-80
2022/03/08 13:15:58;;;;;;;5.90;3.03;;;;;;;;;;5073761;28;20444;-79
2022/03/08 13:18:25;;;;;;;5.57;3.10;;;;;;;;;;5072971;28;20037;-79
2022/03/08 13:20:55;;;;;;;7.28;3.70;;;;;;;;;;5072890;28;20025;-79
2022/03/08 13:23:23;;;;;;;5.93;3.38;;;;;;;;;;5072932;28;20024;-79
2022/03/08 13:25:50;;;;;;;5.82;3.28;;;;;;;;;;5072729;28;20024;-79
2022/03/08 13:28:17;;;;;;;8.52;3.28;;;;;;;;;;5072865;28;20547;-79
2022/03/08 13:30:44;;;;;;;4.80;3.13;;;;;;;;;;5072920;28;20052;-80
2022/03/08 13:33:18;;;;;;;4.88;3.17;;;;;;;;;;5072877;28;20543;-80
2022/03/08 13:35:49;;;;;;;5.90;3.03;;;;;;;;;;5072902;28;20029;-79
2022/03/08 13:38:19;;;;;;;10.27;3.40;;;;;;;;;;5072906;28;20463;-79
2022/03/08 13:40:45;;;;;;;6.80;3.10;;;;;;;;;;5072853;28;20401;-79
2022/03/08 13:43:12;;;;;;;9.63;3.50;;;;;;;;;;5071051;28;20801;-79
2022/03/08 13:45:39;;;;;;;5.45;3.53;;;;;;;;;;5071091;28;20029;-79
2022/03/08 13:48:06;;;;;;;10.15;4.65;;;;;;;;;;5086023;28;20032;-79
2022/03/08 13:50:32;;;;;;;7.20;4.15;;;;;;;;;;5092669;28;20047;-79
2022/03/08 13:53:04;;;;;;;6.90;4.18;;;;;;;;;;5092529;28;20028;-79
2022/03/08 13:55:31;;;;;;;8.57;3.65;;;;;;;;;;5092609;28;20089;-79
2022/03/08 13:57:58;;;;;;;4.63;3.80;;;;;;;;;;5092505;28;20036;-79
2022/03/08 14:00:34;;;;;;;8.60;3.88;;;;;;;;;;5092560;28;20023;-79
2022/03/08 14:03:01;;;;;;;6.90;3.63;;;;;;;;;;5092304;28;20624;-79
2022/03/08 14:05:27;;;;;;;10.35;3.40;;;;;;;;;;5092404;28;20024;-79
2022/03/08 14:08:03;;;;;;;6.07;3.83;;;;;;;;;;5092067;28;20039;-79
2022/03/08 14:10:30;;;;;;;4.28;3.08;;;;;;;;;;5092241;28;20030;-79
2022/03/08 14:12:58;;;;;;;5.75;3.55;;;;;;;;;;5092225;28;20055;-79
2022/03/08 14:15:24;;;;;;;8.50;3.92;;;;;;;;;;5092210;28;20018;-79
2022/03/08 14:18:07;;;;;;;11.25;3.85;;;;;;;;;;5092222;28;20020;-79
2022/03/08 14:20:37;;;;;;;8.98;3.28;;;;;;;;;;5092112;28;20035;-79
2022/03/08 14:23:08;;;;;;;7.30;3.40;;;;;;;;;;5092068;28;20028;-79
2022/03/08 14:25:35;;;;;;;7.50;3.28;;;;;;;;;;5091580;28;20024;-79
2022/03/08 14:28:01;;;;;;;5.57;3.20;;;;;;;;;;5091979;28;20024;-79
2022/03/08 14:30:27;;;;;;;5.95;3.55;;;;;;;;;;5092018;28;20051;-79
2022/03/08 14:33:03;;;;;;;6.30;3.85;;;;;;;;;;5091594;28;20028;-79
2022/03/08 14:35:29;;;;;;;7.95;4.15;;;;;;;;;;5091797;28;20446;-79
2022/03/08 14:38:03;;;;;;;9.85;4.00;;;;;;;;;;5091870;28;20032;-79